Time;durP1;ratioP1;P1;durP2;ratioP2;P2;SDS_P1;SDS_P2;PMS_P1;PMS_P2;Temp;Humidity;BMP_temperature;BMP_pressure;BME280_temperature;BME280_humidity;BME280_pressure;Samples;Min_cycle;Max_cycle;Signal;HPM_P1;HPM_P2
2023/10/26 00:01:03;;;;;;;2.00;0.70;;;;;;;13.65;92.65;96369.88;4178018;28;20640;-82
2023/10/26 00:03:06;;;;;;;1.53;0.77;;;;;;;13.69;92.55;96379.03;4204923;28;21442;-81
2023/10/26 00:05:09;;;;;;;1.43;0.63;;;;;;;13.76;93.54;96382.63;4158801;28;20719;-82
2023/10/26 00:07:14;;;;;;;1.33;0.70;;;;;;;13.80;92.78;96386.56;4189736;28;20655;-82
2023/10/26 00:09:17;;;;;;;1.57;0.90;;;;;;;13.86;93.06;96385.91;4175927;28;20620;-82
2023/10/26 00:11:20;;;;;;;1.97;0.73;;;;;;;13.90;92.55;96381.16;4198479;28;20631;-80
2023/10/26 00:13:24;;;;;;;2.30;0.90;;;;;;;13.95;91.70;96376.22;4174058;28;20733;-81
2023/10/26 00:15:27;;;;;;;1.73;0.70;;;;;;;13.99;92.03;96377.53;4171386;28;20741;-82
2023/10/26 00:17:30;;;;;;;1.20;0.50;;;;;;;14.00;91.93;96387.84;4167037;28;21022;-82
2023/10/26 00:19:35;;;;;;;2.03;0.70;;;;;;;14.01;91.71;96384.25;4175223;28;21097;-81
2023/10/26 00:21:38;;;;;;;1.20;0.70;;;;;;;14.02;92.03;96392.91;4190230;28;21167;-82
2023/10/26 00:23:41;;;;;;;1.40;0.63;;;;;;;14.03;91.97;96387.50;4188083;28;20629;-82
2023/10/26 00:25:44;;;;;;;1.30;0.70;;;;;;;14.05;92.15;96382.13;4174484;28;20664;-81
2023/10/26 00:27:47;;;;;;;3.13;1.00;;;;;;;14.04;91.22;96388.31;4180143;28;20657;-81
2023/10/26 00:29:52;;;;;;;1.57;0.60;;;;;;;14.02;90.97;96385.88;4170275;28;21242;-81
2023/10/26 00:31:55;;;;;;;1.43;0.70;;;;;;;14.05;91.48;96387.38;4164542;28;20629;-82
2023/10/26 00:33:57;;;;;;;2.20;1.10;;;;;;;14.08;91.34;96387.03;4163952;28;20631;-81
2023/10/26 00:36:01;;;;;;;1.30;0.87;;;;;;;14.09;91.32;96391.28;4178723;28;20658;-82
2023/10/26 00:38:04;;;;;;;1.97;0.93;;;;;;;14.11;91.59;96389.31;4162667;28;20731;-82
2023/10/26 00:40:08;;;;;;;1.17;0.70;;;;;;;14.07;91.50;96386.19;4195817;28;20631;-82
2023/10/26 00:42:11;;;;;;;1.70;0.70;;;;;;;14.06;90.93;96392.44;4176121;28;20619;-81
2023/10/26 00:44:15;;;;;;;1.30;0.70;;;;;;;14.05;91.81;96382.13;4158820;28;20736;-82
2023/10/26 00:46:19;;;;;;;1.57;0.77;;;;;;;13.98;91.61;96389.81;4194564;28;20629;-82
2023/10/26 00:48:23;;;;;;;2.10;0.70;;;;;;;13.95;91.95;96384.06;4177644;28;20626;-81
2023/10/26 00:50:26;;;;;;;1.30;0.70;;;;;;;13.89;92.31;96379.50;4157041;28;20631;-81
2023/10/26 00:52:30;;;;;;;1.63;0.77;;;;;;;13.82;92.85;96381.16;4162724;28;20721;-82
2023/10/26 00:54:34;;;;;;;2.27;0.90;;;;;;;13.77;92.42;96373.81;4175193;28;21198;-81
2023/10/26 00:56:37;;;;;;;2.10;0.80;;;;;;;13.75;93.14;96375.75;4204334;28;20616;-82
2023/10/26 00:58:41;;;;;;;2.37;1.00;;;;;;;13.68;93.85;96374.78;4164624;28;20699;-81
2023/10/26 01:00:46;;;;;;;2.30;0.73;;;;;;;13.67;93.21;96367.91;4178220;28;21312;-82
2023/10/26 01:02:50;;;;;;;1.90;0.73;;;;;;;13.62;94.30;96368.56;4157203;28;20722;-81
2023/10/26 01:04:53;;;;;;;2.33;0.90;;;;;;;13.54;95.13;96365.97;4191990;28;20617;-82
2023/10/26 01:06:57;;;;;;;2.57;0.80;;;;;;;13.52;94.62;96367.94;4191984;28;20641;-82
2023/10/26 01:09:00;;;;;;;4.77;0.90;;;;;;;13.49;94.81;96366.47;4163428;28;20617;-82
2023/10/26 01:11:04;;;;;;;2.03;0.80;;;;;;;13.48;94.37;96358.75;4174662;28;20733;-81
2023/10/26 01:13:07;;;;;;;2.00;0.90;;;;;;;13.49;94.85;96363.84;4190582;28;20639;-81
2023/10/26 01:15:10;;;;;;;3.00;0.90;;;;;;;13.46;94.83;96358.13;4205552;28;20639;-82
2023/10/26 01:17:13;;;;;;;3.63;1.10;;;;;;;13.47;95.39;96367.59;4174380;28;20649;-82
2023/10/26 01:19:18;;;;;;;1.53;0.93;;;;;;;13.48;95.08;96369.25;4205303;28;20761;-81
2023/10/26 01:21:28;;;;;;;2.67;1.10;;;;;;;13.43;95.84;96371.53;4155068;28;20693;-81
2023/10/26 01:23:31;;;;;;;3.03;1.20;;;;;;;13.41;95.37;96370.88;4175308;28;20686;-81
2023/10/26 01:25:34;;;;;;;2.00;1.00;;;;;;;13.39;95.71;96370.22;4186977;28;21248;-81
2023/10/26 01:27:38;;;;;;;2.17;0.93;;;;;;;13.38;95.94;96366.78;4193324;28;20729;-81
2023/10/26 01:29:41;;;;;;;1.73;0.93;;;;;;;13.39;95.48;96375.47;4179800;28;20735;-81
2023/10/26 01:31:43;;;;;;;3.07;1.13;;;;;;;13.38;95.75;96365.94;4178832;28;20730;-82
2023/10/26 01:33:46;;;;;;;1.90;1.10;;;;;;;13.37;95.97;96366.97;4203344;28;20625;-81
2023/10/26 01:35:50;;;;;;;2.30;0.83;;;;;;;13.35;96.06;96368.91;4190320;28;20637;-81
2023/10/26 01:37:54;;;;;;;2.17;1.00;;;;;;;13.33;96.00;96369.06;4177377;28;20994;-81
2023/10/26 01:39:58;;;;;;;2.33;1.07;;;;;;;13.31;95.48;96363.19;4172368;28;20669;-81
2023/10/26 01:42:01;;;;;;;1.50;0.87;;;;;;;13.33;95.43;96363.81;4158604;28;21078;-81
2023/10/26 01:44:03;;;;;;;1.70;1.10;;;;;;;13.35;95.05;96353.19;4175409;28;20676;-81
2023/10/26 01:46:06;;;;;;;2.30;1.47;;;;;;;13.34;95.65;96357.63;4163911;28;20641;-82
2023/10/26 01:48:10;;;;;;;3.53;1.27;;;;;;;13.37;95.66;96361.72;4161901;28;21227;-81
2023/10/26 01:50:13;;;;;;;2.10;0.93;;;;;;;13.37;95.76;96359.09;4178981;28;20707;-81
2023/10/26 01:52:17;;;;;;;1.70;1.03;;;;;;;13.33;95.37;96360.41;4181414;28;20687;-82
2023/10/26 01:54:22;;;;;;;4.33;1.00;;;;;;;13.34;95.33;96359.44;4187132;28;21080;-81
2023/10/26 01:56:24;;;;;;;3.10;1.00;;;;;;;13.33;95.29;96355.97;4162801;28;20736;-81
2023/10/26 01:58:28;;;;;;;2.03;1.10;;;;;;;13.29;95.24;96364.31;4160646;28;20643;-82
2023/10/26 02:00:31;;;;;;;1.80;1.13;;;;;;;13.30;95.05;96360.72;4159102;28;20623;-81
2023/10/26 02:02:34;;;;;;;1.77;1.00;;;;;;;13.34;95.34;96356.81;4180311;28;20644;-81
2023/10/26 02:04:41;;;;;;;1.77;0.70;;;;;;;13.32;95.10;96351.75;4185915;28;21495;-81
2023/10/26 02:06:44;;;;;;;1.70;0.90;;;;;;;13.30;94.97;96356.28;4161149;28;20760;-81
2023/10/26 02:08:49;;;;;;;2.13;1.20;;;;;;;13.27;94.70;96359.25;4173047;28;20666;-84
2023/10/26 02:10:54;;;;;;;2.50;0.90;;;;;;;13.28;95.06;96360.09;4194393;28;20652;-84
2023/10/26 02:12:58;;;;;;;3.90;1.00;;;;;;;13.27;95.08;96361.84;4185622;28;20787;-84
2023/10/26 02:15:01;;;;;;;1.90;1.17;;;;;;;13.31;94.87;96362.38;4159519;28;20623;-82
2023/10/26 02:17:05;;;;;;;1.87;1.10;;;;;;;13.30;94.74;96355.50;4156290;28;20675;-81
2023/10/26 02:19:08;;;;;;;2.90;1.23;;;;;;;13.28;94.48;96354.84;4176058;28;20699;-81
2023/10/26 02:21:11;;;;;;;2.93;1.00;;;;;;;13.26;94.88;96355.00;4190255;28;21185;-81
2023/10/26 02:23:15;;;;;;;2.20;1.00;;;;;;;13.26;95.42;96351.56;4177850;28;20625;-81
2023/10/26 02:25:20;;;;;;;2.40;1.13;;;;;;;13.24;94.85;96361.38;4161479;28;20729;-81
2023/10/26 02:27:24;;;;;;;2.70;1.00;;;;;;;13.23;94.98;96362.38;4183379;28;20795;-81
2023/10/26 02:29:27;;;;;;;2.80;1.27;;;;;;;13.18;95.38;96360.25;4192989;28;20974;-81
2023/10/26 02:31:31;;;;;;;1.63;0.97;;;;;;;13.17;94.86;96355.19;4180737;28;20660;-81
2023/10/26 02:33:34;;;;;;;2.00;1.00;;;;;;;13.14;95.06;96359.91;4171795;28;20691;-82
2023/10/26 02:35:38;;;;;;;2.10;1.00;;;;;;;13.16;94.71;96353.53;4157041;28;20693;-81
2023/10/26 02:37:41;;;;;;;3.33;1.70;;;;;;;13.18;95.21;96354.16;4208990;28;20765;-81
2023/10/26 02:39:44;;;;;;;2.37;1.00;;;;;;;13.21;94.69;96361.69;4204227;28;20657;-81
2023/10/26 02:41:47;;;;;;;1.80;0.90;;;;;;;13.25;94.99;96358.59;4183985;28;20632;-81
2023/10/26 02:43:52;;;;;;;1.40;1.00;;;;;;;13.26;94.18;96359.41;4179128;28;20727;-81
2023/10/26 02:46:01;;;;;;;1.77;1.10;;;;;;;13.28;94.38;96360.09;4192943;28;21066;-81
2023/10/26 02:48:04;;;;;;;1.60;1.10;;;;;;;13.31;94.33;96362.38;4167163;28;20712;-81
2023/10/26 02:50:08;;;;;;;1.70;1.03;;;;;;;13.35;94.23;96361.03;4178512;28;21239;-81
2023/10/26 02:52:12;;;;;;;1.77;1.03;;;;;;;13.39;94.49;96365.78;4194066;28;20655;-81
2023/10/26 02:54:15;;;;;;;2.10;1.00;;;;;;;13.41;94.27;96361.22;4195848;28;20631;-81
2023/10/26 02:56:17;;;;;;;2.27;0.87;;;;;;;13.45;93.71;96359.09;4175484;28;20695;-81
2023/10/26 02:58:20;;;;;;;1.80;1.20;;;;;;;13.49;94.00;96363.03;4155682;28;20642;-81
2023/10/26 03:00:25;;;;;;;1.77;0.90;;;;;;;13.49;92.43;96355.97;4175834;28;20732;-81
2023/10/26 03:02:30;;;;;;;4.90;1.07;;;;;;;13.53;92.91;96356.47;4195618;28;20656;-81
2023/10/26 03:04:34;;;;;;;1.63;0.90;;;;;;;13.56;92.99;96353.50;4177354;28;21168;-81
2023/10/26 03:06:37;;;;;;;2.47;0.80;;;;;;;13.57;92.14;96363.00;4176997;28;20635;-81
2023/10/26 03:08:41;;;;;;;1.80;1.10;;;;;;;13.55;92.11;96359.75;4162756;28;20636;-81
2023/10/26 03:10:44;;;;;;;1.60;0.90;;;;;;;13.47;92.24;96357.13;4194662;28;20698;-82
2023/10/26 03:12:48;;;;;;;2.20;0.90;;;;;;;13.41;92.60;96358.63;4163219;28;20639;-81
2023/10/26 03:14:52;;;;;;;1.73;1.10;;;;;;;13.33;92.88;96355.16;4171745;28;20636;-81
2023/10/26 03:16:56;;;;;;;1.40;0.83;;;;;;;13.35;92.57;96351.41;4174900;28;20640;-81
2023/10/26 03:19:00;;;;;;;2.60;1.00;;;;;;;13.32;92.53;96346.50;4184927;28;20644;-81
2023/10/26 03:21:03;;;;;;;5.53;1.73;;;;;;;13.31;92.26;96341.44;4161938;28;20696;-81
2023/10/26 03:23:05;;;;;;;1.40;0.80;;;;;;;13.27;92.44;96340.09;4192625;28;20634;-81
2023/10/26 03:25:13;;;;;;;2.20;1.00;;;;;;;13.28;92.68;96341.75;4177760;28;20674;-81
2023/10/26 03:27:17;;;;;;;2.20;1.00;;;;;;;13.24;91.89;96350.91;4188101;28;20636;-81
2023/10/26 03:29:22;;;;;;;1.40;0.70;;;;;;;13.16;93.05;96345.69;4190395;28;20673;-81
2023/10/26 03:31:24;;;;;;;3.40;1.03;;;;;;;13.16;93.07;96337.81;4206378;28;20704;-81
2023/10/26 03:33:29;;;;;;;1.43;0.73;;;;;;;13.15;91.98;96333.56;4159467;28;21218;-81
2023/10/26 03:35:35;;;;;;;1.43;0.90;;;;;;;13.11;92.52;96329.66;4170161;28;20720;-81
2023/10/26 03:37:38;;;;;;;2.97;0.80;;;;;;;13.10;92.36;96335.84;4171901;28;20646;-81
2023/10/26 03:39:41;;;;;;;2.47;0.93;;;;;;;13.09;92.93;96336.81;4187111;28;21179;-81
2023/10/26 03:41:44;;;;;;;2.43;1.00;;;;;;;13.08;92.30;96337.81;4190005;28;20678;-81
2023/10/26 03:43:48;;;;;;;1.87;1.00;;;;;;;13.08;92.52;96340.44;4155263;28;20768;-81
2023/10/26 03:45:51;;;;;;;2.43;1.00;;;;;;;13.03;92.01;96331.44;4191011;28;20739;-81
2023/10/26 03:47:53;;;;;;;2.30;0.87;;;;;;;13.00;93.23;96342.22;4172522;28;20628;-81
2023/10/26 03:49:58;;;;;;;2.97;1.10;;;;;;;12.99;92.73;96344.03;4186819;28;20644;-81
2023/10/26 03:52:01;;;;;;;2.40;0.80;;;;;;;13.02;92.00;96345.50;4168619;28;20635;-81
2023/10/26 03:54:03;;;;;;;1.93;1.00;;;;;;;13.04;92.16;96339.13;4157763;28;20653;-81
2023/10/26 03:56:07;;;;;;;1.17;0.80;;;;;;;13.02;92.63;96341.09;4158132;28;21270;-81
2023/10/26 03:58:12;;;;;;;2.23;0.80;;;;;;;13.02;92.58;96346.31;4161524;28;20633;-81
2023/10/26 04:00:16;;;;;;;3.53;1.00;;;;;;;13.08;92.85;96344.84;4189337;28;20659;-82
2023/10/26 04:02:19;;;;;;;2.03;1.00;;;;;;;13.15;92.94;96344.03;4182574;28;20780;-81
2023/10/26 04:04:22;;;;;;;3.13;1.13;;;;;;;13.18;92.67;96362.88;4187678;28;20690;-82
2023/10/26 04:06:26;;;;;;;3.87;0.90;;;;;;;13.17;92.65;96357.78;4193187;28;20639;-81
2023/10/26 04:08:29;;;;;;;2.13;0.70;;;;;;;13.18;92.21;96364.66;4209420;28;20627;-81
2023/10/26 04:10:33;;;;;;;3.33;1.07;;;;;;;13.19;92.33;96364.47;4175312;28;20714;-82
2023/10/26 04:12:37;;;;;;;4.50;1.00;;;;;;;13.16;92.01;96353.53;4189079;28;20682;-81
2023/10/26 04:14:41;;;;;;;2.90;0.90;;;;;;;13.12;92.52;96354.00;4174494;28;20698;-84
2023/10/26 04:16:47;;;;;;;2.07;1.10;;;;;;;13.17;91.74;96357.78;4192268;28;20650;-84
2023/10/26 04:18:50;;;;;;;1.97;0.90;;;;;;;13.20;91.64;96355.66;4181235;28;20659;-84
2023/10/26 04:20:54;;;;;;;1.50;0.87;;;;;;;13.16;91.91;96343.06;4177708;28;20648;-84
2023/10/26 04:22:59;;;;;;;2.47;0.90;;;;;;;13.16;91.49;96352.72;4192867;28;20627;-84
2023/10/26 04:25:04;;;;;;;1.80;0.80;;;;;;;13.13;91.77;96340.75;4196597;28;20626;-84
2023/10/26 04:27:07;;;;;;;2.90;0.90;;;;;;;13.09;91.67;96336.03;4193524;28;20657;-83
2023/10/26 04:29:11;;;;;;;2.90;1.10;;;;;;;13.09;92.36;96336.81;4178861;28;21082;-84
2023/10/26 04:31:15;;;;;;;1.47;0.80;;;;;;;13.08;92.55;96323.91;4191073;28;20685;-83
2023/10/26 04:33:18;;;;;;;1.63;0.90;;;;;;;13.10;91.25;96325.38;4178387;28;20707;-84
2023/10/26 04:35:21;;;;;;;1.60;0.90;;;;;;;13.11;91.75;96324.41;4194315;28;21273;-83
2023/10/26 04:37:24;;;;;;;1.33;0.90;;;;;;;13.15;92.66;96333.56;4196266;28;20646;-84
2023/10/26 04:39:29;;;;;;;1.70;0.90;;;;;;;13.20;92.26;96334.72;4192874;28;20681;-84
2023/10/26 04:41:33;;;;;;;1.77;0.90;;;;;;;13.19;91.22;96327.03;4196119;28;20643;-84
2023/10/26 04:43:36;;;;;;;1.87;1.00;;;;;;;13.17;91.40;96328.16;4188465;28;20686;-84
2023/10/26 04:45:39;;;;;;;1.33;0.80;;;;;;;13.17;92.06;96338.63;4161173;28;20664;-83
2023/10/26 04:47:42;;;;;;;3.17;1.20;;;;;;;13.18;91.62;96340.28;4209373;28;20669;-84
2023/10/26 04:49:48;;;;;;;1.60;0.77;;;;;;;13.18;91.77;96345.50;4197405;28;21187;-84
2023/10/26 04:51:51;;;;;;;1.50;0.77;;;;;;;13.23;92.09;96344.06;4191162;28;20728;-84
2023/10/26 04:53:54;;;;;;;2.13;0.90;;;;;;;13.27;92.40;96340.09;4179378;28;21098;-84
2023/10/26 04:55:59;;;;;;;2.70;1.10;;;;;;;13.30;92.17;96345.00;4190913;28;20629;-83
2023/10/26 04:58:02;;;;;;;1.93;1.10;;;;;;;13.32;91.73;96343.03;4165433;28;20658;-84
2023/10/26 05:00:09;;;;;;;3.40;1.20;;;;;;;13.28;91.64;96337.31;4206971;28;21004;-84
2023/10/26 05:02:12;;;;;;;2.40;0.90;;;;;;;13.27;90.92;96340.09;4176254;28;20644;-84
2023/10/26 05:04:15;;;;;;;2.67;1.20;;;;;;;13.27;90.05;96335.69;4186137;28;20636;-84
2023/10/26 05:06:18;;;;;;;3.03;1.30;;;;;;;13.24;90.72;96332.56;4174039;28;20660;-84
2023/10/26 05:08:22;;;;;;;1.80;1.10;;;;;;;13.23;91.13;96331.78;4174288;28;20624;-84
2023/10/26 05:10:24;;;;;;;2.60;1.00;;;;;;;13.24;90.79;96336.03;4168918;28;20663;-84
2023/10/26 05:12:28;;;;;;;1.57;1.00;;;;;;;13.25;91.09;96336.84;4209665;28;20638;-81
2023/10/26 05:14:32;;;;;;;1.90;1.13;;;;;;;13.24;91.49;96338.66;4189280;28;20628;-82
2023/10/26 05:16:35;;;;;;;2.77;1.20;;;;;;;13.21;91.40;96327.66;4188746;28;20731;-82
2023/10/26 05:18:38;;;;;;;2.13;1.20;;;;;;;13.19;91.41;96319.16;4172303;28;20763;-81
2023/10/26 05:20:47;;;;;;;1.80;0.93;;;;;;;13.15;91.17;96319.66;4188529;28;20650;-82
2023/10/26 05:22:50;;;;;;;3.53;1.10;;;;;;;13.12;91.35;96322.59;4207963;28;20684;-81
2023/10/26 05:24:54;;;;;;;2.43;1.23;;;;;;;13.10;91.33;96317.53;4173185;28;20678;-81
2023/10/26 05:26:57;;;;;;;1.43;0.97;;;;;;;13.09;91.70;96307.22;4190754;28;20630;-82
2023/10/26 05:29:03;;;;;;;1.77;1.00;;;;;;;13.03;90.87;96321.78;4189214;28;20640;-81
2023/10/26 05:31:06;;;;;;;2.00;1.30;;;;;;;12.98;91.02;96316.22;4187462;28;21306;-81
2023/10/26 05:33:09;;;;;;;2.23;1.20;;;;;;;12.98;91.42;96318.03;4169479;28;20629;-81
2023/10/26 05:35:13;;;;;;;3.70;1.30;;;;;;;12.93;91.06;96315.91;4173640;28;20994;-81
2023/10/26 05:37:16;;;;;;;2.10;1.10;;;;;;;12.85;90.46;96312.44;4168539;28;20647;-81
2023/10/26 05:39:20;;;;;;;2.00;1.10;;;;;;;12.81;91.69;96301.47;4188430;28;20620;-81
2023/10/26 05:41:24;;;;;;;3.00;1.40;;;;;;;12.80;90.55;96309.47;4186696;28;20648;-81
2023/10/26 05:43:27;;;;;;;2.07;1.03;;;;;;;12.78;91.79;96306.22;4172518;28;21086;-81
2023/10/26 05:45:39;;;;;;;2.83;1.30;;;;;;;12.74;92.59;96304.88;4177821;28;20655;-80
2023/10/26 05:47:43;;;;;;;57.53;41.70;;;;;;;12.70;91.42;96303.56;4188238;28;20627;-82
2023/10/26 05:49:46;;;;;;;3.43;2.47;;;;;;;12.65;92.91;96299.81;4186364;28;21245;-82
2023/10/26 05:51:48;;;;;;;2.57;1.80;;;;;;;12.60;93.19;96313.38;4168332;28;20626;-84
2023/10/26 05:53:51;;;;;;;2.23;1.30;;;;;;;12.60;92.41;96308.13;4181262;28;21056;-84
2023/10/26 05:55:58;;;;;;;1.90;1.10;;;;;;;12.61;92.00;96314.97;4192064;28;21046;-84
2023/10/26 05:58:01;;;;;;;4.00;1.43;;;;;;;12.62;93.30;96302.75;4187543;28;20629;-84
2023/10/26 06:00:06;;;;;;;3.60;1.43;;;;;;;12.60;92.05;96309.91;4189070;28;20640;-84
2023/10/26 06:02:15;;;;;;;2.20;1.23;;;;;;;12.58;92.02;96304.03;4168980;28;20667;-84
2023/10/26 06:04:18;;;;;;;1.90;1.40;;;;;;;12.56;92.22;96300.78;4172711;28;20624;-83
2023/10/26 06:06:21;;;;;;;6.90;4.27;;;;;;;12.56;93.98;96300.78;4155015;28;20644;-83
2023/10/26 06:08:24;;;;;;;3.77;1.60;;;;;;;12.52;92.47;96300.25;4190438;28;21188;-83
2023/10/26 06:10:27;;;;;;;3.70;1.60;;;;;;;12.47;93.35;96301.72;4188210;28;20702;-82
2023/10/26 06:12:31;;;;;;;2.20;1.53;;;;;;;12.45;92.20;96306.31;4206992;28;20720;-83
2023/10/26 06:14:34;;;;;;;6.57;3.60;;;;;;;12.36;94.12;96302.03;4172435;28;20682;-83
2023/10/26 06:16:36;;;;;;;2.10;1.70;;;;;;;12.33;94.64;96300.53;4178058;28;20685;-83
2023/10/26 06:18:41;;;;;;;3.17;2.07;;;;;;;12.31;93.21;96306.91;4203559;28;20707;-85
2023/10/26 06:20:56;;;;;;;3.27;1.80;;;;;;;12.30;92.87;96310.50;4155771;28;20690;-85
2023/10/26 06:22:59;;;;;;;3.27;1.83;;;;;;;12.31;93.10;96312.13;4157244;28;20732;-85
2023/10/26 06:25:05;;;;;;;2.87;2.27;;;;;;;12.32;93.16;96316.38;4185889;28;20723;-84
2023/10/26 06:27:08;;;;;;;4.47;2.70;;;;;;;12.33;94.37;96310.19;4170420;28;20728;-84
2023/10/26 06:29:11;;;;;;;4.03;2.00;;;;;;;12.30;94.53;96316.53;4188381;28;20631;-84
2023/10/26 06:31:14;;;;;;;3.63;2.13;;;;;;;12.28;94.29;96313.28;4183093;28;20667;-84
2023/10/26 06:33:17;;;;;;;6.33;2.00;;;;;;;12.28;95.26;96318.50;4175396;28;20634;-85
2023/10/26 06:35:22;;;;;;;4.77;2.00;;;;;;;12.31;94.29;96317.34;4173505;28;20629;-84
2023/10/26 06:37:25;;;;;;;7.97;3.93;;;;;;;12.32;94.91;96325.03;4177216;28;21174;-84
2023/10/26 06:39:28;;;;;;;6.63;3.73;;;;;;;12.27;93.82;96326.50;4167519;28;20638;-84
2023/10/26 06:41:32;;;;;;;7.73;4.53;;;;;;;12.26;94.32;96330.09;4172652;28;20690;-84
2023/10/26 06:43:38;;;;;;;18.67;12.87;;;;;;;12.29;95.03;96329.78;4166591;28;20642;-84
2023/10/26 06:45:41;;;;;;;8.00;3.60;;;;;;;12.29;95.35;96335.00;4178474;28;20730;-84
2023/10/26 06:47:44;;;;;;;3.40;1.90;;;;;;;12.33;95.26;96331.09;4172292;28;20637;-84
2023/10/26 06:49:47;;;;;;;3.00;2.00;;;;;;;12.36;95.23;96330.78;4170846;28;21150;-84
2023/10/26 06:51:52;;;;;;;2.90;2.10;;;;;;;12.39;95.49;96333.91;4187617;28;21354;-84
2023/10/26 06:53:55;;;;;;;2.20;1.80;;;;;;;12.41;95.44;96331.13;4186020;28;20662;-84
2023/10/26 06:55:58;;;;;;;8.10;1.73;;;;;;;12.42;94.66;96328.34;4172041;28;20705;-84
2023/10/26 06:58:01;;;;;;;1.80;1.30;;;;;;;12.45;95.35;96335.88;4160984;28;21202;-84
2023/10/26 07:00:06;;;;;;;2.00;1.30;;;;;;;12.50;94.03;96328.38;4188644;28;20647;-84
2023/10/26 07:02:10;;;;;;;1.87;1.10;;;;;;;12.54;93.56;96328.84;4171089;28;20671;-84
2023/10/26 07:04:14;;;;;;;3.73;1.90;;;;;;;12.59;93.53;96329.22;4204169;28;20682;-84
2023/10/26 07:06:18;;;;;;;4.20;2.20;;;;;;;12.64;94.85;96329.53;4188314;28;20620;-84
2023/10/26 07:08:22;;;;;;;4.30;2.97;;;;;;;12.68;93.95;96331.69;4189471;28;20654;-84
2023/10/26 07:10:25;;;;;;;2.80;2.33;;;;;;;12.70;94.79;96333.16;4172518;28;20982;-84
2023/10/26 07:12:28;;;;;;;2.40;2.10;;;;;;;12.74;93.49;96331.84;4157812;28;20622;-84
2023/10/26 07:14:31;;;;;;;4.03;2.50;;;;;;;12.77;94.78;96328.91;4174554;28;20624;-84
2023/10/26 07:16:34;;;;;;;3.57;2.70;;;;;;;12.83;94.16;96335.34;4189440;28;21258;-84
2023/10/26 07:18:38;;;;;;;2.47;1.80;;;;;;;12.88;95.51;96331.25;4188706;28;20662;-84
2023/10/26 07:20:41;;;;;;;2.27;1.70;;;;;;;12.93;95.51;96333.38;4174219;28;20727;-84
2023/10/26 07:22:45;;;;;;;2.10;1.60;;;;;;;12.94;95.69;96329.78;4175582;28;20852;-84
2023/10/26 07:24:49;;;;;;;2.23;1.80;;;;;;;12.98;96.54;96326.69;4177733;28;20639;-84
2023/10/26 07:26:53;;;;;;;5.27;1.83;;;;;;;13.00;95.68;96337.78;4172237;28;20678;-84
2023/10/26 07:28:57;;;;;;;2.50;1.77;;;;;;;13.04;96.12;96333.88;4190692;28;20653;-84
2023/10/26 07:31:00;;;;;;;3.10;2.13;;;;;;;13.08;96.83;96343.06;4185180;28;20739;-84
2023/10/26 07:33:02;;;;;;;3.83;2.17;;;;;;;13.11;97.15;96342.75;4196321;28;20613;-84
2023/10/26 07:35:06;;;;;;;2.43;1.60;;;;;;;13.15;97.93;96336.19;4169086;28;20617;-84
2023/10/26 07:37:09;;;;;;;2.70;1.67;;;;;;;13.19;98.41;96333.06;4188937;28;20690;-84
2023/10/26 07:39:12;;;;;;;2.43;1.80;;;;;;;13.21;98.03;96332.91;4194427;28;20638;-84
2023/10/26 07:41:36;;;;;;;8.37;2.60;;;;;;;13.24;97.22;96336.03;4159566;28;20752;-84
2023/10/26 07:44:00;;;;;;;2.30;1.53;;;;;;;13.24;96.04;96333.41;4175082;28;21212;-85
2023/10/26 07:46:04;;;;;;;2.80;1.30;;;;;;;13.28;95.81;96336.53;4170219;28;20634;-85
2023/10/26 07:48:08;;;;;;;2.93;1.90;;;;;;;13.30;95.77;96335.34;4185466;28;20678;-85
2023/10/26 07:50:12;;;;;;;4.30;1.77;;;;;;;13.36;96.26;96333.88;4160624;28;21294;-84
2023/10/26 07:52:15;;;;;;;3.50;1.80;;;;;;;13.41;96.55;96328.97;4177307;28;20690;-84
2023/10/26 07:54:18;;;;;;;5.23;2.10;;;;;;;13.45;96.41;96330.28;4158889;28;20629;-85
2023/10/26 07:56:22;;;;;;;4.10;2.80;;;;;;;13.49;97.15;96331.59;4193637;28;20632;-85
2023/10/26 07:58:27;;;;;;;3.47;2.10;;;;;;;13.49;96.78;96314.06;4202745;28;20634;-84
2023/10/26 08:00:31;;;;;;;3.10;2.47;;;;;;;13.51;96.56;96317.34;4192575;28;21029;-85
2023/10/26 08:02:34;;;;;;;2.53;2.30;;;;;;;13.55;96.15;96320.47;4171217;28;20743;-90
2023/10/26 08:04:41;;;;;;;4.80;2.50;;;;;;;13.58;96.46;96315.69;4191730;28;20625;-82
2023/10/26 08:06:45;;;;;;;4.67;3.00;;;;;;;13.62;96.18;96317.00;4204320;28;20641;-82
2023/10/26 08:08:48;;;;;;;7.33;3.00;;;;;;;13.66;97.21;96316.47;4164881;28;20633;-83
2023/10/26 08:10:51;;;;;;;5.30;2.60;;;;;;;13.72;97.05;96318.44;4194087;28;20628;-82
2023/10/26 08:12:54;;;;;;;3.20;2.40;;;;;;;13.81;96.37;96327.09;4192073;28;20715;-82
2023/10/26 08:14:59;;;;;;;4.40;2.20;;;;;;;13.83;96.35;96323.34;4190359;28;21404;-81
2023/10/26 08:17:22;;;;;;;5.40;2.77;;;;;;;13.88;96.05;96330.72;4177393;28;20736;-82
2023/10/26 08:19:26;;;;;;;7.93;4.90;;;;;;;13.90;95.89;96326.91;4178592;28;20675;-82
2023/10/26 08:21:29;;;;;;;11.33;5.80;;;;;;;13.93;96.21;96323.97;4176605;28;20668;-83
2023/10/26 08:23:33;;;;;;;9.77;5.37;;;;;;;13.97;96.13;96330.50;4174102;28;20671;-82
2023/10/26 08:25:36;;;;;;;7.83;5.10;;;;;;;14.01;96.87;96321.34;4192160;28;20628;-82
2023/10/26 08:27:42;;;;;;;6.80;4.80;;;;;;;14.05;96.98;96306.09;4152687;28;20721;-82
2023/10/26 08:29:45;;;;;;;4.13;3.27;;;;;;;14.08;97.14;96311.81;4174726;28;21100;-83
2023/10/26 08:31:50;;;;;;;5.80;3.40;;;;;;;14.12;96.16;96323.63;4173823;28;20719;-83
2023/10/26 08:33:53;;;;;;;6.33;3.40;;;;;;;14.16;96.04;96333.59;4185735;28;20701;-82
2023/10/26 08:35:57;;;;;;;3.80;2.53;;;;;;;14.17;95.13;96334.41;4187178;28;20645;-82
2023/10/26 08:38:00;;;;;;;2.30;1.60;;;;;;;14.18;94.41;96336.06;4190325;28;20629;-83
2023/10/26 08:40:04;;;;;;;2.83;2.07;;;;;;;14.19;94.06;96343.75;4176477;28;20648;-82
2023/10/26 08:42:08;;;;;;;3.37;2.60;;;;;;;14.22;94.80;96329.47;4162082;28;20736;-82
2023/10/26 08:44:11;;;;;;;3.90;2.73;;;;;;;14.24;95.02;96330.94;4162649;28;20762;-82
2023/10/26 08:46:17;;;;;;;3.30;2.30;;;;;;;14.24;96.69;96322.25;4195111;28;20686;-82
2023/10/26 08:48:21;;;;;;;4.10;2.80;;;;;;;14.14;95.78;96326.88;4178511;28;20667;-83
2023/10/26 08:50:25;;;;;;;5.00;2.67;;;;;;;14.12;96.72;96323.63;4160590;28;21259;-82
2023/10/26 08:52:28;;;;;;;3.47;3.00;;;;;;;14.12;96.84;96325.41;4170656;28;20648;-82
2023/10/26 08:54:31;;;;;;;3.17;2.60;;;;;;;14.14;97.59;96327.69;4176024;28;20733;-83
2023/10/26 08:56:35;;;;;;;3.30;2.53;;;;;;;14.18;98.07;96330.81;4176893;28;20672;-82
2023/10/26 08:58:38;;;;;;;3.40;2.63;;;;;;;14.20;97.11;96342.75;4176499;28;20630;-82
2023/10/26 09:00:42;;;;;;;5.43;3.30;;;;;;;14.24;97.80;96343.25;4187804;28;20686;-82
2023/10/26 09:02:45;;;;;;;4.70;2.57;;;;;;;14.29;96.20;96341.72;4177844;28;20637;-82
2023/10/26 09:05:03;;;;;;;3.33;2.33;;;;;;;14.34;96.29;96343.84;4174429;28;20673;-82
2023/10/26 09:07:07;;;;;;;3.07;1.77;;;;;;;14.40;95.80;96328.25;4192488;28;21197;-82
2023/10/26 09:09:09;;;;;;;2.70;1.90;;;;;;;14.47;94.44;96323.13;4169970;28;20634;-82
2023/10/26 09:11:21;;;;;;;2.43;1.80;;;;;;;14.49;94.25;96321.16;4191860;28;20624;-82
2023/10/26 09:13:26;;;;;;;2.90;2.10;;;;;;;14.56;93.87;96322.09;4160420;28;21047;-83
2023/10/26 09:15:30;;;;;;;3.00;1.67;;;;;;;14.64;94.81;96326.31;4175881;28;20954;-83
2023/10/26 09:17:34;;;;;;;2.47;1.57;;;;;;;14.72;93.28;96322.84;4209672;28;20628;-83
2023/10/26 09:19:40;;;;;;;3.37;1.90;;;;;;;14.79;94.85;96311.47;4191367;28;20640;-82
2023/10/26 09:21:54;;;;;;;3.60;2.03;;;;;;;14.84;94.92;96318.78;4154688;28;20724;-82
2023/10/26 09:23:57;;;;;;;2.40;1.80;;;;;;;14.88;93.74;96314.84;4176292;28;20663;-83
2023/10/26 09:26:02;;;;;;;2.53;1.70;;;;;;;14.90;93.43;96326.81;4160112;28;20642;-83
2023/10/26 09:28:05;;;;;;;1.87;1.40;;;;;;;14.91;94.46;96331.06;4156013;28;20630;-83
2023/10/26 09:30:23;;;;;;;2.83;1.50;;;;;;;14.92;95.27;96327.44;4194153;28;20687;-83
2023/10/26 09:32:32;;;;;;;2.87;1.60;;;;;;;14.92;94.68;96335.31;4156533;28;20726;-83
2023/10/26 09:34:41;;;;;;;4.37;1.40;;;;;;;14.96;95.33;96341.88;4176905;28;20632;-83
2023/10/26 09:36:59;;;;;;;2.57;1.47;;;;;;;14.96;94.57;96331.38;4177276;28;21133;-83
2023/10/26 09:39:07;;;;;;;2.50;1.77;;;;;;;14.96;95.72;96333.16;4188269;28;20696;-83
2023/10/26 09:41:17;;;;;;;4.03;1.60;;;;;;;14.96;94.42;96341.88;4172314;28;20632;-83
2023/10/26 09:43:20;;;;;;;2.63;1.67;;;;;;;14.95;95.14;96342.06;4156228;28;20632;-82
2023/10/26 09:45:23;;;;;;;3.40;1.40;;;;;;;14.96;95.55;96347.13;4192222;28;20766;-83